Bud Sonier — WDE9248 — position and weather

sailwx.info

Track history (hours):
 
Tides and Currents Weather Stations Pressure Air Temp Water Temp Dewpoint Dewpoint Depression Visibility Wind Speed Wind Dir Waves Ship Positions

Bud Sonier

Owner: LeBeouf Bros. Towing, LLC, Houma, LA. More information available from US FCC via Universal Licensing System and Coast Guard Vessel Documentation Center.

Last reported at 2018-Apr-17 01:36 UTC. Time now 2018-Apr-25 21:50 UTC.
Position N 29°33' W 090°25'.
Warning: this ship's position is 8 days out of date.

Length 22 m; draft 3 m.

Type: Towing. MMSI: 367415180.

Date/timePositionNaut miles runAvg speedWind from/ knotsBaromVisibWave heightAir tempDewpointWater temp
2018-Apr-17 01:36N 29°33' W 090°25'0 2.2
2018-Apr-17 01:27N 29°33' W 090°25'2 3.1
2018-Apr-17 00:51N 29°33' W 090°27'2 6.4
2018-Apr-17 00:30N 29°34' W 090°30'3 6.1
2018-Apr-17 00:00N 29°34' W 090°33'1 2.2
2018-Apr-16 23:30N 29°34' W 090°34'1 1.7
2018-Apr-16 23:00N 29°35' W 090°35'1 2.9
2018-Apr-16 22:31N 29°35' W 090°37'3 6.0
2018-Apr-16 22:00N 29°36' W 090°40'2 4.4
2018-Apr-16 21:31N 29°37' W 090°42'2 4.5
2018-Apr-16 20:59N 29°34' W 090°43'2 4.4
2018-Apr-16 20:30N 29°33' W 090°45'3 6.4
2018-Apr-16 20:00N 29°32' W 090°49'118 4.3
2018-Apr-15 16:45N 29°56' W 093°01'1 5.6
2018-Apr-15 16:30N 29°56' W 093°03'3 5.4
2018-Apr-15 16:00N 29°56' W 093°06'3 5.4
2018-Apr-15 15:30N 29°56' W 093°09'2 4.8
2018-Apr-15 15:01N 29°58' W 093°11'3 5.2
2018-Apr-15 14:30N 29°60' W 093°13'2 4.6
2018-Apr-15 14:00N 30°02' W 093°14'2 4.7
2018-Apr-15 13:31N 30°04' W 093°16'2 4.7
2018-Apr-15 13:01N 30°05' W 093°18'2 3.9
2018-Apr-15 12:30N 30°05' W 093°20'2 5.0
2018-Apr-15 12:00N 30°04' W 093°22'2 4.5
2018-Apr-15 11:31N 30°04' W 093°25'3 6.2
2018-Apr-15 11:01N 30°04' W 093°28'3 6.3
2018-Apr-15 10:31N 30°04' W 093°32'3 6.1
2018-Apr-15 10:00N 30°04' W 093°36'3 5.9
2018-Apr-15 09:30N 30°04' W 093°39'3 6.0
2018-Apr-15 09:00N 30°03' W 093°43'2 3.9
2018-Apr-15 08:30N 30°02' W 093°44'3 5.0
2018-Apr-15 08:01N 30°00' W 093°46'3 5.2
2018-Apr-15 07:31N 29°59' W 093°49'3 5.2
2018-Apr-15 07:00N 29°58' W 093°51'3 5.9
2018-Apr-15 06:30N 29°55' W 093°53'3 5.7
2018-Apr-15 06:01N 29°53' W 093°55'3 5.6
2018-Apr-15 05:30N 29°51' W 093°57'2 4.9
2018-Apr-15 05:00N 29°49' W 093°59'3 5.1
2018-Apr-15 04:30N 29°47' W 094°01'3 6.2
2018-Apr-15 04:00N 29°45' W 094°04'3 6.2
2018-Apr-15 03:30N 29°43' W 094°07'3 6.1
2018-Apr-15 03:01N 29°41' W 094°10'3 5.7
2018-Apr-15 02:30N 29°40' W 094°13'2 3.3
2018-Apr-15 02:00N 29°40' W 094°14'2 3.8
2018-Apr-15 01:30N 29°39' W 094°16'3 5.5
2018-Apr-15 01:00N 29°38' W 094°19'3 5.7
2018-Apr-15 00:29N 29°36' W 094°22'50 2.7
2018-Apr-14 06:28N 29°15' W 095°13'23 2.8
2018-Apr-13 22:07N 29°27' W 094°51'1 8.3
2018-Apr-13 22:00N 29°28' W 094°51'4 8.6
2018-Apr-13 21:31N 29°31' W 094°53'4 8.9
2018-Apr-13 21:00N 29°35' W 094°56'4 7.2
2018-Apr-13 20:31N 29°37' W 094°60'1 2.3
2018-Apr-13 20:00N 29°36' W 095°01'0 0.0
2018-Apr-13 19:31N 29°36' W 095°01'0 0.0
2018-Apr-13 19:01N 29°36' W 095°01'0 0.0
2018-Apr-13 18:31N 29°36' W 095°01'0 0.0
2018-Apr-13 18:00N 29°36' W 095°01'0 0.0
2018-Apr-13 17:31N 29°36' W 095°01'0 0.0
2018-Apr-13 17:00N 29°36' W 095°01'0 0.0
2018-Apr-13 16:31N 29°36' W 095°01'0 0.0
2018-Apr-13 16:01N 29°36' W 095°01'0 0.0
2018-Apr-13 15:30N 29°36' W 095°01'0 0.0
2018-Apr-13 15:01N 29°36' W 095°01'0 0.0
2018-Apr-13 14:31N 29°36' W 095°01'0 0.0
2018-Apr-13 14:00N 29°36' W 095°01'0 0.0
2018-Apr-13 13:30N 29°36' W 095°01'0 0.0
2018-Apr-13 13:01N 29°36' W 095°01'0 0.0
2018-Apr-13 12:30N 29°36' W 095°01'0 0.0
2018-Apr-13 12:00N 29°36' W 095°01'0 0.0
2018-Apr-13 11:30N 29°36' W 095°01'0 0.0
2018-Apr-13 11:01N 29°36' W 095°01'0 0.0
2018-Apr-13 10:30N 29°36' W 095°01'0 0.0
2018-Apr-13 10:00N 29°36' W 095°01'0 0.0
2018-Apr-13 09:31N 29°36' W 095°01'0 0.0
2018-Apr-13 09:01N 29°36' W 095°01'0 0.0
2018-Apr-13 08:30N 29°36' W 095°01'0 0.0
2018-Apr-13 08:00N 29°36' W 095°01'0 0.0
2018-Apr-13 07:31N 29°36' W 095°01'0 0.0
2018-Apr-13 07:00N 29°36' W 095°01'0 0.0
2018-Apr-13 06:31N 29°36' W 095°01'0 0.0
2018-Apr-13 06:00N 29°36' W 095°01'0 0.0
2018-Apr-13 05:30N 29°36' W 095°01'0 0.0
2018-Apr-13 05:01N 29°36' W 095°01'0 0.0
2018-Apr-13 04:30N 29°36' W 095°01'0 0.0
2018-Apr-13 04:00N 29°36' W 095°01'0 0.0
2018-Apr-13 03:29N 29°36' W 095°01'0 0.0
2018-Apr-13 03:01N 29°36' W 095°01'0 0.0
2018-Apr-13 02:31N 29°36' W 095°01'0 0.0
2018-Apr-13 02:01N 29°36' W 095°01'0 0.0
2018-Apr-13 01:31N 29°36' W 095°01'0 0.0
2018-Apr-13 01:01N 29°36' W 095°01'0 0.0
2018-Apr-13 00:30N 29°36' W 095°01'0 0.0
2018-Apr-13 00:00N 29°36' W 095°01'0 0.0
2018-Apr-12 23:31N 29°36' W 095°01'0 0.0
2018-Apr-12 23:00N 29°36' W 095°01'0 0.0
2018-Apr-12 22:31N 29°36' W 095°01'0 0.0
2018-Apr-12 22:01N 29°36' W 095°01'0 0.0
2018-Apr-12 21:31N 29°36' W 095°01'0 0.0
2018-Apr-12 21:01N 29°36' W 095°01'0 0.0
2018-Apr-12 20:31N 29°36' W 095°01'0 0.0
2018-Apr-12 20:01N 29°36' W 095°01'0 0.0
2018-Apr-12 19:31N 29°36' W 095°01'0 0.0
2018-Apr-12 19:00N 29°36' W 095°01'0 0.0
2018-Apr-12 18:31N 29°36' W 095°01'0 0.0
2018-Apr-12 18:00N 29°36' W 095°01'0 0.0
2018-Apr-12 17:30N 29°36' W 095°01'0 0.0
2018-Apr-12 17:00N 29°36' W 095°01'1 2.3
2018-Apr-12 16:30N 29°37' W 094°60'2 4.9
2018-Apr-12 16:01N 29°39' W 094°58'4 7.3
2018-Apr-12 15:30N 29°42' W 095°00'2 4.6
2018-Apr-12 15:01N 29°42' W 095°03'0 0.0
2018-Apr-12 14:30N 29°42' W 095°03'0 0.0
2018-Apr-12 14:00N 29°42' W 095°03'0 0.0
2018-Apr-12 13:30N 29°42' W 095°03'0 0.0
2018-Apr-12 13:01N 29°42' W 095°03'0 0.0
2018-Apr-12 12:30N 29°42' W 095°03'0 0.0
2018-Apr-12 12:00N 29°42' W 095°03'0 0.0
2018-Apr-12 11:30N 29°42' W 095°03'0 0.0
2018-Apr-12 11:00N 29°42' W 095°03'0 0.4
2018-Apr-12 10:30N 29°42' W 095°03'0 0.0
2018-Apr-12 10:00N 29°42' W 095°03'0 0.0
2018-Apr-12 09:30N 29°42' W 095°03'0 0.0
2018-Apr-12 09:01N 29°42' W 095°03'0 0.0
2018-Apr-12 08:30N 29°42' W 095°03'0 0.0
2018-Apr-12 08:00N 29°42' W 095°03'0 0.0
2018-Apr-12 07:30N 29°42' W 095°03'0 0.0
2018-Apr-12 07:00N 29°42' W 095°03'0 0.0
2018-Apr-12 06:30N 29°42' W 095°03'0 0.0
2018-Apr-12 06:00N 29°42' W 095°03'0 0.0
2018-Apr-12 05:30N 29°42' W 095°03'0 0.0
2018-Apr-12 05:01N 29°42' W 095°03'0 0.0
2018-Apr-12 04:29N 29°42' W 095°03'0 0.0
2018-Apr-12 04:00N 29°42' W 095°03'0 0.0
2018-Apr-12 03:30N 29°42' W 095°03'0 0.0
2018-Apr-12 03:00N 29°42' W 095°03'0 0.0
2018-Apr-12 02:30N 29°42' W 095°03'0 0.0
2018-Apr-12 02:00N 29°42' W 095°03'0 0.0
2018-Apr-12 01:28N 29°42' W 095°03'0 0.0
2018-Apr-12 00:59N 29°42' W 095°03'0 0.0
2018-Apr-12 00:30N 29°42' W 095°03'0 0.0
2018-Apr-12 00:00N 29°42' W 095°03'0 0.0
2018-Apr-11 23:31N 29°42' W 095°03'0 0.0
2018-Apr-11 23:00N 29°42' W 095°03'0 0.0
2018-Apr-11 22:31N 29°42' W 095°03'0 0.0
2018-Apr-11 22:00N 29°42' W 095°03'0 0.0
2018-Apr-11 21:30N 29°42' W 095°03'0 0.0
2018-Apr-11 21:00N 29°42' W 095°03'0 0.0
2018-Apr-11 20:30N 29°42' W 095°03'0 0.0
2018-Apr-11 20:01N 29°42' W 095°03'0 0.0
2018-Apr-11 19:30N 29°42' W 095°03'0 0.0
2018-Apr-11 19:01N 29°42' W 095°03'0 0.0
2018-Apr-11 18:30N 29°42' W 095°03'0 0.0
2018-Apr-11 17:59N 29°42' W 095°03'0 0.4
2018-Apr-11 17:31N 29°42' W 095°03'0 0.0
2018-Apr-11 17:00N 29°42' W 095°03'0 0.0
2018-Apr-11 16:30N 29°42' W 095°03'0 0.0
2018-Apr-11 15:54N 29°42' W 095°03'0 0.0
2018-Apr-11 15:30N 29°42' W 095°03'0 0.0
2018-Apr-11 14:57N 29°42' W 095°03'0 0.0
2018-Apr-11 14:27N 29°42' W 095°03'0 0.0
2018-Apr-11 13:56N 29°42' W 095°03'0 0.0
2018-Apr-11 13:29N 29°42' W 095°03'0 0.0
2018-Apr-11 13:00N 29°42' W 095°03'0 0.0
2018-Apr-11 12:30N 29°42' W 095°03'0 0.0
2018-Apr-11 12:00N 29°42' W 095°03'0 0.0
2018-Apr-11 11:29N 29°42' W 095°03'0 0.0
2018-Apr-11 10:59N 29°42' W 095°03'0 0.0
2018-Apr-11 10:29N 29°42' W 095°03'0 0.0
2018-Apr-11 10:00N 29°42' W 095°03'0 0.0
2018-Apr-11 09:28N 29°42' W 095°03'0 0.0
2018-Apr-11 09:00N 29°42' W 095°03'0 0.0
2018-Apr-11 08:30N 29°42' W 095°03'0 0.0
2018-Apr-11 08:00N 29°42' W 095°03'0 0.0
2018-Apr-11 07:30N 29°42' W 095°03'0 0.0
2018-Apr-11 07:00N 29°42' W 095°03'0 0.0
2018-Apr-11 06:28N 29°42' W 095°03'0 0.0
2018-Apr-11 06:00N 29°42' W 095°03'0 0.0
2018-Apr-11 05:30N 29°42' W 095°03'0 0.0
2018-Apr-11 05:00N 29°42' W 095°03'0 0.0
2018-Apr-11 04:29N 29°42' W 095°03'0 0.0
2018-Apr-11 03:54N 29°42' W 095°03'0 0.0
2018-Apr-11 03:29N 29°42' W 095°03'0 0.0
2018-Apr-11 02:59N 29°42' W 095°03'0 0.0
2018-Apr-11 02:31N 29°42' W 095°03'0 0.0
2018-Apr-11 01:59N 29°42' W 095°03'0 0.0
2018-Apr-11 01:30N 29°42' W 095°03'0 0.0
2018-Apr-11 01:01N 29°42' W 095°03'0 0.0
2018-Apr-11 00:31N 29°42' W 095°03'0 0.0
2018-Apr-11 00:00N 29°42' W 095°03'0 0.0
2018-Apr-10 23:31N 29°42' W 095°03'0 0.0
2018-Apr-10 23:00N 29°42' W 095°03'0 0.0
2018-Apr-10 22:31N 29°42' W 095°03'0 0.0
2018-Apr-10 22:00N 29°42' W 095°03'0 0.0
2018-Apr-10 21:30N 29°42' W 095°03'0 0.0
2018-Apr-10 21:01N 29°42' W 095°03'0 0.0
2018-Apr-10 20:30N 29°42' W 095°03'0 0.0
2018-Apr-10 19:54N 29°42' W 095°03'0 0.0
2018-Apr-10 19:26N 29°42' W 095°03'0 0.0
2018-Apr-10 19:00N 29°42' W 095°03'0 0.0
2018-Apr-10 18:26N 29°42' W 095°03'0 0.0
2018-Apr-10 18:00N 29°42' W 095°03'0 0.0
2018-Apr-10 15:36N 29°42' W 095°03'0 0.0
2018-Apr-10 15:24N 29°42' W 095°03'0 0.0
2018-Apr-10 14:53N 29°42' W 095°03'0 0.0
2018-Apr-10 14:30N 29°42' W 095°03'0 0.0
2018-Apr-10 14:00N 29°42' W 095°03'0 0.0
2018-Apr-10 13:30N 29°42' W 095°03'0 0.0
2018-Apr-10 13:00N 29°42' W 095°03'0 0.0
2018-Apr-10 12:30N 29°42' W 095°03'0 0.0
2018-Apr-10 12:01N 29°42' W 095°03'0 0.0
2018-Apr-10 11:31N 29°42' W 095°03'0 0.0
2018-Apr-10 11:00N 29°42' W 095°03'0 0.0
2018-Apr-10 10:30N 29°42' W 095°03'0 0.0
2018-Apr-10 10:01N 29°42' W 095°03'0 0.0
2018-Apr-10 09:30N 29°42' W 095°03'0 0.0
2018-Apr-10 09:01N 29°42' W 095°03'0 0.0
2018-Apr-10 08:30N 29°42' W 095°03'0 0.0
2018-Apr-10 07:42N 29°42' W 095°03'0 0.0
2018-Apr-10 07:29N 29°42' W 095°03'0 0.0
2018-Apr-10 07:00N 29°42' W 095°03'0 0.0
2018-Apr-10 06:30N 29°42' W 095°03'0 0.0
2018-Apr-10 06:00N 29°42' W 095°03'0 0.0
2018-Apr-10 05:30N 29°42' W 095°03'0 0.0
2018-Apr-10 05:01N 29°42' W 095°03'0 0.0
2018-Apr-10 04:31N 29°42' W 095°03'0 0.0
2018-Apr-10 04:00N 29°42' W 095°03'0 0.0
2018-Apr-10 03:30N 29°42' W 095°03'0 0.0
2018-Apr-10 02:59N 29°42' W 095°03'0 0.0
2018-Apr-10 02:30N 29°42' W 095°03'0 0.0
2018-Apr-10 02:01N 29°42' W 095°03'0 0.0
2018-Apr-10 01:30N 29°42' W 095°03'0 0.0
2018-Apr-10 01:01N 29°42' W 095°03'0 0.0
2018-Apr-10 00:31N 29°42' W 095°03'0 0.0
2018-Apr-10 00:01N 29°42' W 095°03'0 0.0
2018-Apr-09 23:30N 29°42' W 095°03'0 0.0
2018-Apr-09 23:00N 29°42' W 095°03'0 0.0
2018-Apr-09 22:31N 29°42' W 095°03'0 0.0
2018-Apr-09 22:00N 29°42' W 095°03'0 0.0
2018-Apr-09 21:30N 29°42' W 095°03'0 0.0
2018-Apr-09 21:00N 29°42' W 095°03'0 0.0
2018-Apr-09 20:30N 29°42' W 095°03'0 0.0
2018-Apr-09 20:01N 29°42' W 095°03'0 0.0
2018-Apr-09 19:30N 29°42' W 095°03'0 0.0
2018-Apr-09 19:01N 29°42' W 095°03'0 0.0
2018-Apr-09 18:31N 29°42' W 095°03'0 0.0
2018-Apr-09 18:00N 29°42' W 095°03'0 0.0
2018-Apr-09 17:31N 29°42' W 095°03'0 0.0
2018-Apr-09 17:01N 29°42' W 095°03'0 0.0
2018-Apr-09 16:31N 29°42' W 095°03'0 0.0
2018-Apr-09 16:00N 29°42' W 095°03'0 0.0
2018-Apr-09 15:30N 29°42' W 095°03'0 0.0
2018-Apr-09 15:00N 29°42' W 095°03'0 0.0
2018-Apr-09 14:31N 29°42' W 095°03'0 0.0
2018-Apr-09 13:58N 29°42' W 095°03'0 0.0
2018-Apr-09 13:30N 29°42' W 095°03'0 0.0
2018-Apr-09 13:01N 29°42' W 095°03'0 0.0
2018-Apr-09 12:30N 29°42' W 095°03'0 0.0
2018-Apr-09 12:00N 29°42' W 095°03'0 0.0
2018-Apr-09 11:31N 29°42' W 095°03'0 0.0
2018-Apr-09 11:00N 29°42' W 095°03'0 0.0
2018-Apr-09 10:31N 29°42' W 095°03'0 0.0
2018-Apr-09 10:01N 29°42' W 095°03'0 0.0
2018-Apr-09 09:30N 29°42' W 095°03'0 0.0
2018-Apr-09 09:00N 29°42' W 095°03'0 0.0
2018-Apr-09 08:31N 29°42' W 095°03'0 0.0
2018-Apr-09 08:01N 29°42' W 095°03'0 0.0
2018-Apr-09 07:31N 29°42' W 095°03'0 0.0
2018-Apr-09 07:01N 29°42' W 095°03'0 0.0
2018-Apr-09 06:30N 29°42' W 095°03'0 0.0
2018-Apr-09 06:01N 29°42' W 095°03'0 0.0
2018-Apr-09 05:30N 29°42' W 095°03'0 0.0
2018-Apr-09 05:01N 29°42' W 095°03'0 0.0
2018-Apr-09 04:30N 29°42' W 095°03'0 0.0
2018-Apr-09 04:01N 29°42' W 095°03'0 0.0
2018-Apr-09 03:30N 29°42' W 095°03'0 0.0
2018-Apr-09 02:59N 29°42' W 095°03'0 0.0
2018-Apr-09 02:30N 29°42' W 095°03'0 0.0
2018-Apr-09 02:00N 29°42' W 095°03'0 0.0
2018-Apr-09 01:30N 29°42' W 095°03'0 0.0
2018-Apr-09 01:00N 29°42' W 095°03'0 0.0
2018-Apr-09 00:30N 29°42' W 095°03'0 0.0
2018-Apr-09 00:01N 29°42' W 095°03'0 0.0
2018-Apr-08 23:31N 29°42' W 095°03'0 0.0
2018-Apr-08 23:01N 29°42' W 095°03'0 0.0
2018-Apr-08 22:31N 29°42' W 095°03'0 0.0
2018-Apr-08 22:00N 29°42' W 095°03'0 0.0
2018-Apr-08 21:31N 29°42' W 095°03'0 0.0
2018-Apr-08 21:00N 29°42' W 095°03'0 0.0
2018-Apr-08 20:30N 29°42' W 095°03'0 0.0
2018-Apr-08 20:00N 29°42' W 095°03'0 0.0
2018-Apr-08 19:31N 29°42' W 095°03'0 0.0
2018-Apr-08 19:00N 29°42' W 095°03'0 0.0
2018-Apr-08 18:31N 29°42' W 095°03'0 0.0
2018-Apr-08 18:01N 29°42' W 095°03'0 0.0
2018-Apr-08 17:31N 29°42' W 095°03'0 0.0
2018-Apr-08 17:01N 29°42' W 095°03'0 0.0
2018-Apr-08 16:30N 29°42' W 095°03'0 0.0
2018-Apr-08 16:00N 29°42' W 095°03'0 0.0
2018-Apr-08 15:30N 29°42' W 095°03'0 0.0
2018-Apr-08 15:01N 29°42' W 095°03'0 0.0
2018-Apr-08 14:31N 29°42' W 095°03'0 0.0
2018-Apr-08 14:00N 29°42' W 095°03'0 0.0
2018-Apr-08 06:26N 29°42' W 095°03'0 0.0
2018-Apr-08 05:59N 29°42' W 095°03'0 0.0
2018-Apr-08 05:22N 29°42' W 095°03'0 0.0
2018-Apr-08 05:00N 29°42' W 095°03'0 0.0
2018-Apr-08 04:26N 29°42' W 095°03'0 0.0
2018-Apr-08 03:59N 29°42' W 095°03'0 0.0
2018-Apr-08 03:31N 29°42' W 095°03'0 0.0
2018-Apr-08 03:00N 29°42' W 095°03'0 0.0
2018-Apr-08 02:31N 29°42' W 095°03'0 0.0
2018-Apr-08 02:00N 29°42' W 095°03'0 0.0
2018-Apr-08 01:31N 29°42' W 095°03'0 0.0
2018-Apr-08 01:01N 29°42' W 095°03'0 0.0
2018-Apr-08 00:30N 29°42' W 095°03'0 0.0
2018-Apr-08 00:00N 29°42' W 095°03'0 0.0
2018-Apr-07 23:30N 29°42' W 095°03'0 0.0
2018-Apr-07 23:00N 29°42' W 095°03'0 0.0
2018-Apr-07 22:31N 29°42' W 095°03'0 0.0
2018-Apr-07 22:01N 29°42' W 095°03'0 0.0
2018-Apr-07 21:30N 29°42' W 095°03'0 0.0
2018-Apr-07 21:01N 29°42' W 095°03'0 0.0
2018-Apr-07 20:31N 29°42' W 095°03'0 0.0
2018-Apr-07 20:00N 29°42' W 095°03'0 0.0
2018-Apr-07 19:29N 29°42' W 095°03'0 0.0
2018-Apr-07 19:01N 29°42' W 095°03'0 0.0
2018-Apr-07 18:30N 29°42' W 095°03'0 0.0
2018-Apr-07 18:00N 29°42' W 095°03'0 0.1
2018-Apr-07 17:30N 29°43' W 095°03'2 3.1
2018-Apr-07 17:00N 29°44' W 095°02'1 2.4
2018-Apr-07 16:30N 29°44' W 095°03'0 0.0
2018-Apr-07 16:01N 29°44' W 095°03'0 0.0
2018-Apr-07 15:31N 29°44' W 095°03'0 0.0
2018-Apr-07 15:01N 29°44' W 095°03'0 0.0
2018-Apr-07 14:31N 29°44' W 095°03'2 4.4
2018-Apr-07 14:00N 29°42' W 095°01'1 2.5
2018-Apr-07 13:31N 29°42' W 095°03'0 0.0
2018-Apr-07 13:01N 29°42' W 095°03'0 0.0
2018-Apr-07 10:58N 29°42' W 095°03'0 0.0
2018-Apr-07 10:29N 29°42' W 095°03'0 0.0
2018-Apr-07 09:59N 29°42' W 095°03'0 0.0
2018-Apr-07 09:06N 29°42' W 095°03'0 0.0
2018-Apr-07 08:37N 29°42' W 095°03'0 0.0
2018-Apr-07 08:30N 29°42' W 095°03'0 0.0
2018-Apr-07 08:00N 29°42' W 095°03'0 0.0
2018-Apr-07 05:45N 29°42' W 095°03'0 0.0
2018-Apr-07 03:43N 29°42' W 095°03'0 0.0
2018-Apr-07 02:28N 29°42' W 095°03'0 0.0
2018-Apr-07 01:57N 29°42' W 095°03'  
Track history (hours):
 
Tides and Currents Weather Stations Pressure Air Temp Water Temp Dewpoint Dewpoint Depression Visibility Wind Speed Wind Dir Waves Ship Positions

Bud Sonier

Owner: LeBeouf Bros. Towing, LLC, Houma, LA. More information available from US FCC via Universal Licensing System and Coast Guard Vessel Documentation Center.

Last reported at 2018-Apr-17 01:36 UTC. Time now 2018-Apr-25 21:50 UTC.
Position N 29°33' W 090°25'.
Warning: this ship's position is 8 days out of date.

Length 22 m; draft 3 m.

Type: Towing. MMSI: 367415180.

Date/timePositionNaut miles runAvg speedWind from/ knotsBaromVisibWave heightAir tempDewpointWater temp
2018-Apr-17 01:36N 29°33' W 090°25'0 2.2
2018-Apr-17 01:27N 29°33' W 090°25'2 3.1
2018-Apr-17 00:51N 29°33' W 090°27'2 6.4
2018-Apr-17 00:30N 29°34' W 090°30'3 6.1
2018-Apr-17 00:00N 29°34' W 090°33'1 2.2
2018-Apr-16 23:30N 29°34' W 090°34'1 1.7
2018-Apr-16 23:00N 29°35' W 090°35'1 2.9
2018-Apr-16 22:31N 29°35' W 090°37'3 6.0
2018-Apr-16 22:00N 29°36' W 090°40'2 4.4
2018-Apr-16 21:31N 29°37' W 090°42'2 4.5
2018-Apr-16 20:59N 29°34' W 090°43'2 4.4
2018-Apr-16 20:30N 29°33' W 090°45'3 6.4
2018-Apr-16 20:00N 29°32' W 090°49'118 4.3
2018-Apr-15 16:45N 29°56' W 093°01'1 5.6
2018-Apr-15 16:30N 29°56' W 093°03'3 5.4
2018-Apr-15 16:00N 29°56' W 093°06'3 5.4
2018-Apr-15 15:30N 29°56' W 093°09'2 4.8
2018-Apr-15 15:01N 29°58' W 093°11'3 5.2
2018-Apr-15 14:30N 29°60' W 093°13'2 4.6
2018-Apr-15 14:00N 30°02' W 093°14'2 4.7
2018-Apr-15 13:31N 30°04' W 093°16'2 4.7
2018-Apr-15 13:01N 30°05' W 093°18'2 3.9
2018-Apr-15 12:30N 30°05' W 093°20'2 5.0
2018-Apr-15 12:00N 30°04' W 093°22'2 4.5
2018-Apr-15 11:31N 30°04' W 093°25'3 6.2
2018-Apr-15 11:01N 30°04' W 093°28'3 6.3
2018-Apr-15 10:31N 30°04' W 093°32'3 6.1
2018-Apr-15 10:00N 30°04' W 093°36'3 5.9
2018-Apr-15 09:30N 30°04' W 093°39'3 6.0
2018-Apr-15 09:00N 30°03' W 093°43'2 3.9
2018-Apr-15 08:30N 30°02' W 093°44'3 5.0
2018-Apr-15 08:01N 30°00' W 093°46'3 5.2
2018-Apr-15 07:31N 29°59' W 093°49'3 5.2
2018-Apr-15 07:00N 29°58' W 093°51'3 5.9
2018-Apr-15 06:30N 29°55' W 093°53'3 5.7
2018-Apr-15 06:01N 29°53' W 093°55'3 5.6
2018-Apr-15 05:30N 29°51' W 093°57'2 4.9
2018-Apr-15 05:00N 29°49' W 093°59'3 5.1
2018-Apr-15 04:30N 29°47' W 094°01'3 6.2
2018-Apr-15 04:00N 29°45' W 094°04'3 6.2
2018-Apr-15 03:30N 29°43' W 094°07'3 6.1
2018-Apr-15 03:01N 29°41' W 094°10'3 5.7
2018-Apr-15 02:30N 29°40' W 094°13'2 3.3
2018-Apr-15 02:00N 29°40' W 094°14'2 3.8
2018-Apr-15 01:30N 29°39' W 094°16'3 5.5
2018-Apr-15 01:00N 29°38' W 094°19'3 5.7
2018-Apr-15 00:29N 29°36' W 094°22'50 2.7
2018-Apr-14 06:28N 29°15' W 095°13'23 2.8
2018-Apr-13 22:07N 29°27' W 094°51'1 8.3
2018-Apr-13 22:00N 29°28' W 094°51'4 8.6
2018-Apr-13 21:31N 29°31' W 094°53'4 8.9
2018-Apr-13 21:00N 29°35' W 094°56'4 7.2
2018-Apr-13 20:31N 29°37' W 094°60'1 2.3
2018-Apr-13 20:00N 29°36' W 095°01'0 0.0
2018-Apr-13 19:31N 29°36' W 095°01'0 0.0
2018-Apr-13 19:01N 29°36' W 095°01'0 0.0
2018-Apr-13 18:31N 29°36' W 095°01'0 0.0
2018-Apr-13 18:00N 29°36' W 095°01'0 0.0
2018-Apr-13 17:31N 29°36' W 095°01'0 0.0
2018-Apr-13 17:00N 29°36' W 095°01'0 0.0
2018-Apr-13 16:31N 29°36' W 095°01'0 0.0
2018-Apr-13 16:01N 29°36' W 095°01'0 0.0
2018-Apr-13 15:30N 29°36' W 095°01'0 0.0
2018-Apr-13 15:01N 29°36' W 095°01'0 0.0
2018-Apr-13 14:31N 29°36' W 095°01'0 0.0
2018-Apr-13 14:00N 29°36' W 095°01'0 0.0
2018-Apr-13 13:30N 29°36' W 095°01'0 0.0
2018-Apr-13 13:01N 29°36' W 095°01'0 0.0
2018-Apr-13 12:30N 29°36' W 095°01'0 0.0
2018-Apr-13 12:00N 29°36' W 095°01'0 0.0
2018-Apr-13 11:30N 29°36' W 095°01'0 0.0
2018-Apr-13 11:01N 29°36' W 095°01'0 0.0
2018-Apr-13 10:30N 29°36' W 095°01'0 0.0
2018-Apr-13 10:00N 29°36' W 095°01'0 0.0
2018-Apr-13 09:31N 29°36' W 095°01'0 0.0
2018-Apr-13 09:01N 29°36' W 095°01'0 0.0
2018-Apr-13 08:30N 29°36' W 095°01'0 0.0
2018-Apr-13 08:00N 29°36' W 095°01'0 0.0
2018-Apr-13 07:31N 29°36' W 095°01'0 0.0
2018-Apr-13 07:00N 29°36' W 095°01'0 0.0
2018-Apr-13 06:31N 29°36' W 095°01'0 0.0
2018-Apr-13 06:00N 29°36' W 095°01'0 0.0
2018-Apr-13 05:30N 29°36' W 095°01'0 0.0
2018-Apr-13 05:01N 29°36' W 095°01'0 0.0
2018-Apr-13 04:30N 29°36' W 095°01'0 0.0
2018-Apr-13 04:00N 29°36' W 095°01'0 0.0
2018-Apr-13 03:29N 29°36' W 095°01'0 0.0
2018-Apr-13 03:01N 29°36' W 095°01'0 0.0
2018-Apr-13 02:31N 29°36' W 095°01'0 0.0
2018-Apr-13 02:01N 29°36' W 095°01'0 0.0
2018-Apr-13 01:31N 29°36' W 095°01'0 0.0
2018-Apr-13 01:01N 29°36' W 095°01'0 0.0
2018-Apr-13 00:30N 29°36' W 095°01'0 0.0
2018-Apr-13 00:00N 29°36' W 095°01'0 0.0
2018-Apr-12 23:31N 29°36' W 095°01'0 0.0
2018-Apr-12 23:00N 29°36' W 095°01'0 0.0
2018-Apr-12 22:31N 29°36' W 095°01'0 0.0
2018-Apr-12 22:01N 29°36' W 095°01'0 0.0
2018-Apr-12 21:31N 29°36' W 095°01'0 0.0
2018-Apr-12 21:01N 29°36' W 095°01'0 0.0
2018-Apr-12 20:31N 29°36' W 095°01'0 0.0
2018-Apr-12 20:01N 29°36' W 095°01'0 0.0
2018-Apr-12 19:31N 29°36' W 095°01'0 0.0
2018-Apr-12 19:00N 29°36' W 095°01'0 0.0
2018-Apr-12 18:31N 29°36' W 095°01'0 0.0
2018-Apr-12 18:00N 29°36' W 095°01'0 0.0
2018-Apr-12 17:30N 29°36' W 095°01'0 0.0
2018-Apr-12 17:00N 29°36' W 095°01'1 2.3
2018-Apr-12 16:30N 29°37' W 094°60'2 4.9
2018-Apr-12 16:01N 29°39' W 094°58'4 7.3
2018-Apr-12 15:30N 29°42' W 095°00'2 4.6
2018-Apr-12 15:01N 29°42' W 095°03'0 0.0
2018-Apr-12 14:30N 29°42' W 095°03'0 0.0
2018-Apr-12 14:00N 29°42' W 095°03'0 0.0
2018-Apr-12 13:30N 29°42' W 095°03'0 0.0
2018-Apr-12 13:01N 29°42' W 095°03'0 0.0
2018-Apr-12 12:30N 29°42' W 095°03'0 0.0
2018-Apr-12 12:00N 29°42' W 095°03'0 0.0
2018-Apr-12 11:30N 29°42' W 095°03'0 0.0
2018-Apr-12 11:00N 29°42' W 095°03'0 0.4
2018-Apr-12 10:30N 29°42' W 095°03'0 0.0
2018-Apr-12 10:00N 29°42' W 095°03'0 0.0
2018-Apr-12 09:30N 29°42' W 095°03'0 0.0
2018-Apr-12 09:01N 29°42' W 095°03'0 0.0
2018-Apr-12 08:30N 29°42' W 095°03'0 0.0
2018-Apr-12 08:00N 29°42' W 095°03'0 0.0
2018-Apr-12 07:30N 29°42' W 095°03'0 0.0
2018-Apr-12 07:00N 29°42' W 095°03'0 0.0
2018-Apr-12 06:30N 29°42' W 095°03'0 0.0
2018-Apr-12 06:00N 29°42' W 095°03'0 0.0
2018-Apr-12 05:30N 29°42' W 095°03'0 0.0
2018-Apr-12 05:01N 29°42' W 095°03'0 0.0
2018-Apr-12 04:29N 29°42' W 095°03'0 0.0
2018-Apr-12 04:00N 29°42' W 095°03'0 0.0
2018-Apr-12 03:30N 29°42' W 095°03'0 0.0
2018-Apr-12 03:00N 29°42' W 095°03'0 0.0
2018-Apr-12 02:30N 29°42' W 095°03'0 0.0
2018-Apr-12 02:00N 29°42' W 095°03'0 0.0
2018-Apr-12 01:28N 29°42' W 095°03'0 0.0
2018-Apr-12 00:59N 29°42' W 095°03'0 0.0
2018-Apr-12 00:30N 29°42' W 095°03'0 0.0
2018-Apr-12 00:00N 29°42' W 095°03'0 0.0
2018-Apr-11 23:31N 29°42' W 095°03'0 0.0
2018-Apr-11 23:00N 29°42' W 095°03'0 0.0
2018-Apr-11 22:31N 29°42' W 095°03'0 0.0
2018-Apr-11 22:00N 29°42' W 095°03'0 0.0
2018-Apr-11 21:30N 29°42' W 095°03'0 0.0
2018-Apr-11 21:00N 29°42' W 095°03'0 0.0
2018-Apr-11 20:30N 29°42' W 095°03'0 0.0
2018-Apr-11 20:01N 29°42' W 095°03'0 0.0
2018-Apr-11 19:30N 29°42' W 095°03'0 0.0
2018-Apr-11 19:01N 29°42' W 095°03'0 0.0
2018-Apr-11 18:30N 29°42' W 095°03'0 0.0
2018-Apr-11 17:59N 29°42' W 095°03'0 0.4
2018-Apr-11 17:31N 29°42' W 095°03'0 0.0
2018-Apr-11 17:00N 29°42' W 095°03'0 0.0
2018-Apr-11 16:30N 29°42' W 095°03'0 0.0
2018-Apr-11 15:54N 29°42' W 095°03'0 0.0
2018-Apr-11 15:30N 29°42' W 095°03'0 0.0
2018-Apr-11 14:57N 29°42' W 095°03'0 0.0
2018-Apr-11 14:27N 29°42' W 095°03'0 0.0
2018-Apr-11 13:56N 29°42' W 095°03'0 0.0
2018-Apr-11 13:29N 29°42' W 095°03'0 0.0
2018-Apr-11 13:00N 29°42' W 095°03'0 0.0
2018-Apr-11 12:30N 29°42' W 095°03'0 0.0
2018-Apr-11 12:00N 29°42' W 095°03'0 0.0
2018-Apr-11 11:29N 29°42' W 095°03'0 0.0
2018-Apr-11 10:59N 29°42' W 095°03'0 0.0
2018-Apr-11 10:29N 29°42' W 095°03'0 0.0
2018-Apr-11 10:00N 29°42' W 095°03'0 0.0
2018-Apr-11 09:28N 29°42' W 095°03'0 0.0
2018-Apr-11 09:00N 29°42' W 095°03'0 0.0
2018-Apr-11 08:30N 29°42' W 095°03'0 0.0
2018-Apr-11 08:00N 29°42' W 095°03'0 0.0
2018-Apr-11 07:30N 29°42' W 095°03'0 0.0
2018-Apr-11 07:00N 29°42' W 095°03'0 0.0
2018-Apr-11 06:28N 29°42' W 095°03'0 0.0
2018-Apr-11 06:00N 29°42' W 095°03'0 0.0
2018-Apr-11 05:30N 29°42' W 095°03'0 0.0
2018-Apr-11 05:00N 29°42' W 095°03'0 0.0
2018-Apr-11 04:29N 29°42' W 095°03'0 0.0
2018-Apr-11 03:54N 29°42' W 095°03'0 0.0
2018-Apr-11 03:29N 29°42' W 095°03'0 0.0
2018-Apr-11 02:59N 29°42' W 095°03'0 0.0
2018-Apr-11 02:31N 29°42' W 095°03'0 0.0
2018-Apr-11 01:59N 29°42' W 095°03'0 0.0
2018-Apr-11 01:30N 29°42' W 095°03'0 0.0
2018-Apr-11 01:01N 29°42' W 095°03'0 0.0
2018-Apr-11 00:31N 29°42' W 095°03'0 0.0
2018-Apr-11 00:00N 29°42' W 095°03'0 0.0
2018-Apr-10 23:31N 29°42' W 095°03'0 0.0
2018-Apr-10 23:00N 29°42' W 095°03'0 0.0
2018-Apr-10 22:31N 29°42' W 095°03'0 0.0
2018-Apr-10 22:00N 29°42' W 095°03'0 0.0
2018-Apr-10 21:30N 29°42' W 095°03'0 0.0
2018-Apr-10 21:01N 29°42' W 095°03'0 0.0
2018-Apr-10 20:30N 29°42' W 095°03'0 0.0
2018-Apr-10 19:54N 29°42' W 095°03'0 0.0
2018-Apr-10 19:26N 29°42' W 095°03'0 0.0
2018-Apr-10 19:00N 29°42' W 095°03'0 0.0
2018-Apr-10 18:26N 29°42' W 095°03'0 0.0
2018-Apr-10 18:00N 29°42' W 095°03'0 0.0
2018-Apr-10 15:36N 29°42' W 095°03'0 0.0
2018-Apr-10 15:24N 29°42' W 095°03'0 0.0
2018-Apr-10 14:53N 29°42' W 095°03'0 0.0
2018-Apr-10 14:30N 29°42' W 095°03'0 0.0
2018-Apr-10 14:00N 29°42' W 095°03'0 0.0
2018-Apr-10 13:30N 29°42' W 095°03'0 0.0
2018-Apr-10 13:00N 29°42' W 095°03'0 0.0
2018-Apr-10 12:30N 29°42' W 095°03'0 0.0
2018-Apr-10 12:01N 29°42' W 095°03'0 0.0
2018-Apr-10 11:31N 29°42' W 095°03'0 0.0
2018-Apr-10 11:00N 29°42' W 095°03'0 0.0
2018-Apr-10 10:30N 29°42' W 095°03'0 0.0
2018-Apr-10 10:01N 29°42' W 095°03'0 0.0
2018-Apr-10 09:30N 29°42' W 095°03'0 0.0
2018-Apr-10 09:01N 29°42' W 095°03'0 0.0
2018-Apr-10 08:30N 29°42' W 095°03'0 0.0
2018-Apr-10 07:42N 29°42' W 095°03'0 0.0
2018-Apr-10 07:29N 29°42' W 095°03'0 0.0
2018-Apr-10 07:00N 29°42' W 095°03'0 0.0
2018-Apr-10 06:30N 29°42' W 095°03'0 0.0
2018-Apr-10 06:00N 29°42' W 095°03'0 0.0
2018-Apr-10 05:30N 29°42' W 095°03'0 0.0
2018-Apr-10 05:01N 29°42' W 095°03'0 0.0
2018-Apr-10 04:31N 29°42' W 095°03'0 0.0
2018-Apr-10 04:00N 29°42' W 095°03'0 0.0
2018-Apr-10 03:30N 29°42' W 095°03'0 0.0
2018-Apr-10 02:59N 29°42' W 095°03'0 0.0
2018-Apr-10 02:30N 29°42' W 095°03'0 0.0
2018-Apr-10 02:01N 29°42' W 095°03'0 0.0
2018-Apr-10 01:30N 29°42' W 095°03'0 0.0
2018-Apr-10 01:01N 29°42' W 095°03'0 0.0
2018-Apr-10 00:31N 29°42' W 095°03'0 0.0
2018-Apr-10 00:01N 29°42' W 095°03'0 0.0
2018-Apr-09 23:30N 29°42' W 095°03'0 0.0
2018-Apr-09 23:00N 29°42' W 095°03'0 0.0
2018-Apr-09 22:31N 29°42' W 095°03'0 0.0
2018-Apr-09 22:00N 29°42' W 095°03'0 0.0
2018-Apr-09 21:30N 29°42' W 095°03'0 0.0
2018-Apr-09 21:00N 29°42' W 095°03'0 0.0
2018-Apr-09 20:30N 29°42' W 095°03'0 0.0
2018-Apr-09 20:01N 29°42' W 095°03'0 0.0
2018-Apr-09 19:30N 29°42' W 095°03'0 0.0
2018-Apr-09 19:01N 29°42' W 095°03'0 0.0
2018-Apr-09 18:31N 29°42' W 095°03'0 0.0
2018-Apr-09 18:00N 29°42' W 095°03'0 0.0
2018-Apr-09 17:31N 29°42' W 095°03'0 0.0
2018-Apr-09 17:01N 29°42' W 095°03'0 0.0
2018-Apr-09 16:31N 29°42' W 095°03'0 0.0
2018-Apr-09 16:00N 29°42' W 095°03'0 0.0
2018-Apr-09 15:30N 29°42' W 095°03'0 0.0
2018-Apr-09 15:00N 29°42' W 095°03'0 0.0
2018-Apr-09 14:31N 29°42' W 095°03'0 0.0
2018-Apr-09 13:58N 29°42' W 095°03'0 0.0
2018-Apr-09 13:30N 29°42' W 095°03'0 0.0
2018-Apr-09 13:01N 29°42' W 095°03'0 0.0
2018-Apr-09 12:30N 29°42' W 095°03'0 0.0
2018-Apr-09 12:00N 29°42' W 095°03'0 0.0
2018-Apr-09 11:31N 29°42' W 095°03'0 0.0
2018-Apr-09 11:00N 29°42' W 095°03'0 0.0
2018-Apr-09 10:31N 29°42' W 095°03'0 0.0
2018-Apr-09 10:01N 29°42' W 095°03'0 0.0
2018-Apr-09 09:30N 29°42' W 095°03'0 0.0
2018-Apr-09 09:00N 29°42' W 095°03'0 0.0
2018-Apr-09 08:31N 29°42' W 095°03'0 0.0
2018-Apr-09 08:01N 29°42' W 095°03'0 0.0
2018-Apr-09 07:31N 29°42' W 095°03'0 0.0
2018-Apr-09 07:01N 29°42' W 095°03'0 0.0
2018-Apr-09 06:30N 29°42' W 095°03'0 0.0
2018-Apr-09 06:01N 29°42' W 095°03'0 0.0
2018-Apr-09 05:30N 29°42' W 095°03'0 0.0
2018-Apr-09 05:01N 29°42' W 095°03'0 0.0
2018-Apr-09 04:30N 29°42' W 095°03'0 0.0
2018-Apr-09 04:01N 29°42' W 095°03'0 0.0
2018-Apr-09 03:30N 29°42' W 095°03'0 0.0
2018-Apr-09 02:59N 29°42' W 095°03'0 0.0
2018-Apr-09 02:30N 29°42' W 095°03'0 0.0
2018-Apr-09 02:00N 29°42' W 095°03'0 0.0
2018-Apr-09 01:30N 29°42' W 095°03'0 0.0
2018-Apr-09 01:00N 29°42' W 095°03'0 0.0
2018-Apr-09 00:30N 29°42' W 095°03'0 0.0
2018-Apr-09 00:01N 29°42' W 095°03'0 0.0
2018-Apr-08 23:31N 29°42' W 095°03'0 0.0
2018-Apr-08 23:01N 29°42' W 095°03'0 0.0
2018-Apr-08 22:31N 29°42' W 095°03'0 0.0
2018-Apr-08 22:00N 29°42' W 095°03'0 0.0
2018-Apr-08 21:31N 29°42' W 095°03'0 0.0
2018-Apr-08 21:00N 29°42' W 095°03'0 0.0
2018-Apr-08 20:30N 29°42' W 095°03'0 0.0
2018-Apr-08 20:00N 29°42' W 095°03'0 0.0
2018-Apr-08 19:31N 29°42' W 095°03'0 0.0
2018-Apr-08 19:00N 29°42' W 095°03'0 0.0
2018-Apr-08 18:31N 29°42' W 095°03'0 0.0
2018-Apr-08 18:01N 29°42' W 095°03'0 0.0
2018-Apr-08 17:31N 29°42' W 095°03'0 0.0
2018-Apr-08 17:01N 29°42' W 095°03'0 0.0
2018-Apr-08 16:30N 29°42' W 095°03'0 0.0
2018-Apr-08 16:00N 29°42' W 095°03'0 0.0
2018-Apr-08 15:30N 29°42' W 095°03'0 0.0
2018-Apr-08 15:01N 29°42' W 095°03'0 0.0
2018-Apr-08 14:31N 29°42' W 095°03'0 0.0
2018-Apr-08 14:00N 29°42' W 095°03'0 0.0
2018-Apr-08 06:26N 29°42' W 095°03'0 0.0
2018-Apr-08 05:59N 29°42' W 095°03'0 0.0
2018-Apr-08 05:22N 29°42' W 095°03'0 0.0
2018-Apr-08 05:00N 29°42' W 095°03'0 0.0
2018-Apr-08 04:26N 29°42' W 095°03'0 0.0
2018-Apr-08 03:59N 29°42' W 095°03'0 0.0
2018-Apr-08 03:31N 29°42' W 095°03'0 0.0
2018-Apr-08 03:00N 29°42' W 095°03'0 0.0
2018-Apr-08 02:31N 29°42' W 095°03'0 0.0
2018-Apr-08 02:00N 29°42' W 095°03'0 0.0
2018-Apr-08 01:31N 29°42' W 095°03'0 0.0
2018-Apr-08 01:01N 29°42' W 095°03'0 0.0
2018-Apr-08 00:30N 29°42' W 095°03'0 0.0
2018-Apr-08 00:00N 29°42' W 095°03'0 0.0
2018-Apr-07 23:30N 29°42' W 095°03'0 0.0
2018-Apr-07 23:00N 29°42' W 095°03'0 0.0
2018-Apr-07 22:31N 29°42' W 095°03'0 0.0
2018-Apr-07 22:01N 29°42' W 095°03'0 0.0
2018-Apr-07 21:30N 29°42' W 095°03'0 0.0
2018-Apr-07 21:01N 29°42' W 095°03'0 0.0
2018-Apr-07 20:31N 29°42' W 095°03'0 0.0
2018-Apr-07 20:00N 29°42' W 095°03'0 0.0
2018-Apr-07 19:29N 29°42' W 095°03'0 0.0
2018-Apr-07 19:01N 29°42' W 095°03'0 0.0
2018-Apr-07 18:30N 29°42' W 095°03'0 0.0
2018-Apr-07 18:00N 29°42' W 095°03'0 0.1
2018-Apr-07 17:30N 29°43' W 095°03'2 3.1
2018-Apr-07 17:00N 29°44' W 095°02'1 2.4
2018-Apr-07 16:30N 29°44' W 095°03'0 0.0
2018-Apr-07 16:01N 29°44' W 095°03'0 0.0
2018-Apr-07 15:31N 29°44' W 095°03'0 0.0
2018-Apr-07 15:01N 29°44' W 095°03'0 0.0
2018-Apr-07 14:31N 29°44' W 095°03'2 4.4
2018-Apr-07 14:00N 29°42' W 095°01'1 2.5
2018-Apr-07 13:31N 29°42' W 095°03'0 0.0
2018-Apr-07 13:01N 29°42' W 095°03'0 0.0
2018-Apr-07 10:58N 29°42' W 095°03'0 0.0
2018-Apr-07 10:29N 29°42' W 095°03'0 0.0
2018-Apr-07 09:59N 29°42' W 095°03'0 0.0
2018-Apr-07 09:06N 29°42' W 095°03'0 0.0
2018-Apr-07 08:37N 29°42' W 095°03'0 0.0
2018-Apr-07 08:30N 29°42' W 095°03'0 0.0
2018-Apr-07 08:00N 29°42' W 095°03'0 0.0
2018-Apr-07 05:45N 29°42' W 095°03'0 0.0
2018-Apr-07 03:43N 29°42' W 095°03'0 0.0
2018-Apr-07 02:28N 29°42' W 095°03'0 0.0
2018-Apr-07 01:57N 29°42' W 095°03'  

Dump ship's entire track history